Time;durP1;ratioP1;P1;durP2;ratioP2;P2;SDS_P1;SDS_P2;PMS_P1;PMS_P2;Temp;Humidity;BMP_temperature;BMP_pressure;BME280_temperature;BME280_humidity;BME280_pressure;Samples;Min_cycle;Max_cycle;Signal;HPM_P1;HPM_P2
2023/02/09 00:01:05;;;;;;;13.65;9.40;;;;;;;;;;5051435;28;20225;-80
2023/02/09 00:03:32;;;;;;;12.57;9.18;;;;;;;;;;5051994;28;20580;-79
2023/02/09 00:06:00;;;;;;;12.77;8.65;;;;;;;;;;5051390;28;20295;-80
2023/02/09 00:08:30;;;;;;;8.60;7.53;;;;;;;;;;5051023;28;20689;-79
2023/02/09 00:10:57;;;;;;;10.77;8.10;;;;;;;;;;5051584;28;20206;-79
2023/02/09 00:13:26;;;;;;;9.07;6.53;;;;;;;;;;5051552;28;20201;-80
2023/02/09 00:15:56;;;;;;;12.45;8.68;;;;;;;;;;5051758;28;20206;-79
2023/02/09 00:18:25;;;;;;;14.45;9.30;;;;;;;;;;5050571;28;20208;-79
2023/02/09 00:20:57;;;;;;;14.85;9.02;;;;;;;;;;5051230;28;20221;-79
2023/02/09 00:23:25;;;;;;;11.38;8.63;;;;;;;;;;5051575;28;20289;-80
2023/02/09 00:25:54;;;;;;;13.43;9.27;;;;;;;;;;5051409;28;20210;-78
2023/02/09 00:28:22;;;;;;;13.95;8.98;;;;;;;;;;5050953;28;20208;-80
2023/02/09 00:30:49;;;;;;;15.40;10.15;;;;;;;;;;5051441;28;20288;-79
2023/02/09 00:33:17;;;;;;;15.60;10.05;;;;;;;;;;5051161;28;20296;-80
2023/02/09 00:35:45;;;;;;;12.05;9.32;;;;;;;;;;5074766;22;20327;-83
2023/02/09 00:38:14;;;;;;;10.57;7.93;;;;;;;;;;5051968;28;20639;-84
2023/02/09 00:40:42;;;;;;;15.27;9.45;;;;;;;;;;5052639;28;20225;-83
2023/02/09 00:43:12;;;;;;;12.73;9.10;;;;;;;;;;5052490;28;20266;-83
2023/02/09 00:45:39;;;;;;;16.90;10.77;;;;;;;;;;5052159;28;20233;-84
2023/02/09 00:48:07;;;;;;;13.93;10.32;;;;;;;;;;5051372;28;20278;-84
2023/02/09 00:50:35;;;;;;;14.10;8.55;;;;;;;;;;5052111;28;20241;-83
2023/02/09 00:53:02;;;;;;;15.02;8.68;;;;;;;;;;5052512;28;20284;-83
2023/02/09 00:55:29;;;;;;;12.80;9.30;;;;;;;;;;5055455;28;20320;-83
2023/02/09 00:57:57;;;;;;;13.15;8.70;;;;;;;;;;5055529;28;20212;-83
2023/02/09 01:00:26;;;;;;;11.55;8.75;;;;;;;;;;5055818;28;20645;-83
2023/02/09 01:02:55;;;;;;;14.25;9.20;;;;;;;;;;5055453;28;20293;-84
2023/02/09 01:05:23;;;;;;;13.43;9.98;;;;;;;;;;5055072;28;20239;-83
2023/02/09 01:07:50;;;;;;;14.52;9.15;;;;;;;;;;5055818;28;20237;-81
2023/02/09 01:10:18;;;;;;;10.63;8.38;;;;;;;;;;5055401;28;20292;-83
2023/02/09 01:12:45;;;;;;;13.00;8.77;;;;;;;;;;5055749;28;20550;-83
2023/02/09 01:15:13;;;;;;;13.30;8.43;;;;;;;;;;5055387;28;20228;-83
2023/02/09 01:17:42;;;;;;;14.18;10.38;;;;;;;;;;5055152;28;20212;-82
2023/02/09 01:20:12;;;;;;;10.82;7.80;;;;;;;;;;5054823;28;20647;-83
2023/02/09 01:22:39;;;;;;;15.75;10.60;;;;;;;;;;5055283;28;20787;-82
2023/02/09 01:25:08;;;;;;;11.80;8.68;;;;;;;;;;5055023;28;20317;-82
2023/02/09 01:27:36;;;;;;;15.07;9.82;;;;;;;;;;5055207;28;20221;-83
2023/02/09 01:30:04;;;;;;;14.63;10.15;;;;;;;;;;5054895;28;20280;-83
2023/02/09 01:32:31;;;;;;;14.90;9.25;;;;;;;;;;5054592;28;20590;-82
2023/02/09 01:35:00;;;;;;;15.13;10.75;;;;;;;;;;5054909;28;20244;-82
2023/02/09 01:37:28;;;;;;;12.57;8.65;;;;;;;;;;5054706;28;20722;-82
2023/02/09 01:39:55;;;;;;;11.23;8.88;;;;;;;;;;5054505;28;20210;-82
2023/02/09 01:42:23;;;;;;;10.48;7.00;;;;;;;;;;5055150;28;20249;-83
2023/02/09 01:45:30;;;;;;;9.45;7.10;;;;;;;;;;5054528;28;20256;-82
2023/02/09 01:48:02;;;;;;;11.15;8.30;;;;;;;;;;5054867;28;20320;-81
2023/02/09 01:50:35;;;;;;;13.00;8.73;;;;;;;;;;5054406;28;20202;-81
2023/02/09 01:53:03;;;;;;;12.70;7.68;;;;;;;;;;5054730;28;20197;-84
2023/02/09 01:55:34;;;;;;;13.43;9.00;;;;;;;;;;5054209;28;20312;-83
2023/02/09 01:58:07;;;;;;;13.57;9.32;;;;;;;;;;5053831;28;20212;-82
2023/02/09 02:00:34;;;;;;;13.52;9.07;;;;;;;;;;5054677;28;20202;-83
2023/02/09 02:03:06;;;;;;;12.85;8.02;;;;;;;;;;5054646;28;20260;-82
2023/02/09 02:05:39;;;;;;;14.20;9.68;;;;;;;;;;5053509;28;20232;-83
2023/02/09 02:08:12;;;;;;;12.63;9.50;;;;;;;;;;5053902;28;20208;-82
2023/02/09 02:10:39;;;;;;;14.25;9.70;;;;;;;;;;5054465;28;20292;-83
2023/02/09 02:13:07;;;;;;;14.30;9.35;;;;;;;;;;5054510;28;20212;-83
2023/02/09 02:15:43;;;;;;;14.55;9.63;;;;;;;;;;5054236;28;20221;-83
2023/02/09 02:18:24;;;;;;;11.15;8.32;;;;;;;;;;5053665;28;20292;-82
2023/02/09 02:22:06;;;;;;;13.32;8.60;;;;;;;;;;5053792;28;20206;-81
2023/02/09 02:25:14;;;;;;;13.85;9.40;;;;;;;;;;4973337;28;20224;-82
2023/02/09 02:27:45;;;;;;;14.52;9.55;;;;;;;;;;5029747;28;20204;-82
2023/02/09 02:30:50;;;;;;;11.57;8.57;;;;;;;;;;5053681;28;20202;-82
2023/02/09 02:33:32;;;;;;;11.90;9.38;;;;;;;;;;5054100;28;20197;-82
2023/02/09 02:36:05;;;;;;;14.93;10.02;;;;;;;;;;5053769;28;20314;-82
2023/02/09 02:38:37;;;;;;;14.15;10.40;;;;;;;;;;5057852;28;20689;-81
2023/02/09 02:41:13;;;;;;;15.57;10.75;;;;;;;;;;5070910;28;20269;-79
2023/02/09 02:43:49;;;;;;;14.70;10.00;;;;;;;;;;5070792;28;20259;-81
2023/02/09 02:46:24;;;;;;;15.57;10.95;;;;;;;;;;5070087;28;20249;-80
2023/02/09 02:48:56;;;;;;;20.30;12.18;;;;;;;;;;5069266;28;20269;-83
2023/02/09 02:51:29;;;;;;;15.32;9.73;;;;;;;;;;5069437;28;20288;-80
2023/02/09 02:54:00;;;;;;;14.43;9.90;;;;;;;;;;5067940;28;20269;-81
2023/02/09 02:56:30;;;;;;;15.00;10.48;;;;;;;;;;5067984;28;20209;-81
2023/02/09 02:58:59;;;;;;;12.68;9.80;;;;;;;;;;5064779;28;20193;-83
2023/02/09 03:01:32;;;;;;;12.02;8.30;;;;;;;;;;5056553;28;20241;-83
2023/02/09 03:04:02;;;;;;;12.02;8.65;;;;;;;;;;5055897;28;20221;-83
2023/02/09 03:06:31;;;;;;;11.90;8.57;;;;;;;;;;5054500;28;20210;-82
2023/02/09 03:08:59;;;;;;;10.98;8.35;;;;;;;;;;5054532;28;20207;-83
2023/02/09 03:11:32;;;;;;;15.73;9.98;;;;;;;;;;5056016;28;20212;-83
2023/02/09 03:14:15;;;;;;;15.65;10.18;;;;;;;;;;5059843;28;20292;-82
2023/02/09 03:16:46;;;;;;;13.75;9.02;;;;;;;;;;5054792;28;20201;-83
2023/02/09 03:19:30;;;;;;;13.38;8.00;;;;;;;;;;5059559;28;20979;-83
2023/02/09 03:22:01;;;;;;;13.23;9.45;;;;;;;;;;5057331;28;20293;-83
2023/02/09 03:24:36;;;;;;;14.48;10.15;;;;;;;;;;5055540;28;20232;-82
2023/02/09 03:27:12;;;;;;;13.48;8.63;;;;;;;;;;5055795;28;20208;-83
2023/02/09 03:29:41;;;;;;;12.43;8.65;;;;;;;;;;5054601;28;20304;-83
2023/02/09 03:32:09;;;;;;;11.35;8.05;;;;;;;;;;5055570;28;20202;-83
2023/02/09 03:34:38;;;;;;;12.15;7.68;;;;;;;;;;5054168;28;20240;-82
2023/02/09 03:37:06;;;;;;;11.30;8.15;;;;;;;;;;5054472;28;20229;-81
2023/02/09 03:39:33;;;;;;;8.60;6.68;;;;;;;;;;5053228;28;20571;-83
2023/02/09 03:42:01;;;;;;;11.63;7.45;;;;;;;;;;5053167;28;20293;-83
2023/02/09 03:44:28;;;;;;;14.57;7.57;;;;;;;;;;5053737;28;20316;-80
2023/02/09 03:46:58;;;;;;;11.23;8.02;;;;;;;;;;5054287;28;20288;-82
2023/02/09 03:49:28;;;;;;;11.13;8.30;;;;;;;;;;5053011;28;20205;-82
2023/02/09 03:51:59;;;;;;;13.50;8.55;;;;;;;;;;5053848;28;20265;-82
2023/02/09 03:54:27;;;;;;;13.48;8.82;;;;;;;;;;5052994;28;20686;-82
2023/02/09 03:56:54;;;;;;;14.73;10.00;;;;;;;;;;5053090;28;20208;-83
2023/02/09 03:59:24;;;;;;;15.38;10.27;;;;;;;;;;5052491;28;20196;-82
2023/02/09 04:01:52;;;;;;;12.63;8.40;;;;;;;;;;5053151;28;20232;-82
2023/02/09 04:04:20;;;;;;;15.52;10.80;;;;;;;;;;5052655;28;20261;-83
2023/02/09 04:06:48;;;;;;;14.75;10.65;;;;;;;;;;5053335;28;20708;-81
2023/02/09 04:09:17;;;;;;;16.23;10.15;;;;;;;;;;5052448;28;20200;-82
2023/02/09 04:11:45;;;;;;;13.32;8.68;;;;;;;;;;5053311;28;20265;-82
2023/02/09 04:14:13;;;;;;;9.07;6.88;;;;;;;;;;5052625;28;20290;-81
2023/02/09 04:16:41;;;;;;;11.65;7.78;;;;;;;;;;5053132;28;20201;-81
2023/02/09 04:19:09;;;;;;;10.85;6.55;;;;;;;;;;5051927;28;20293;-84
2023/02/09 04:21:37;;;;;;;9.35;7.28;;;;;;;;;;5051327;28;20619;-82
2023/02/09 04:24:06;;;;;;;9.68;6.97;;;;;;;;;;5053180;28;20320;-81
2023/02/09 04:26:35;;;;;;;8.82;6.38;;;;;;;;;;5052869;28;20215;-84
2023/02/09 04:29:03;;;;;;;7.72;5.75;;;;;;;;;;5054993;28;20284;-83
2023/02/09 04:31:30;;;;;;;14.80;8.88;;;;;;;;;;5056533;28;20212;-82
2023/02/09 04:33:58;;;;;;;15.35;8.85;;;;;;;;;;5055994;28;20296;-82
2023/02/09 04:36:25;;;;;;;13.40;9.07;;;;;;;;;;5055073;28;20288;-81
2023/02/09 04:38:53;;;;;;;11.80;8.15;;;;;;;;;;5055290;28;20201;-82
2023/02/09 04:41:20;;;;;;;10.07;7.78;;;;;;;;;;5056333;28;20292;-80
2023/02/09 04:43:49;;;;;;;12.32;8.15;;;;;;;;;;5056469;28;20328;-81
2023/02/09 04:46:18;;;;;;;15.68;9.27;;;;;;;;;;5054802;28;20233;-80
2023/02/09 04:48:46;;;;;;;11.70;8.65;;;;;;;;;;5054149;28;20236;-81
2023/02/09 04:51:13;;;;;;;11.73;8.30;;;;;;;;;;5056029;28;20241;-81
2023/02/09 04:53:41;;;;;;;10.38;7.75;;;;;;;;;;5055927;28;20220;-80
2023/02/09 04:56:09;;;;;;;8.60;6.68;;;;;;;;;;5055973;28;20781;-81
2023/02/09 05:01:25;;;;;;;9.15;6.25;;;;;;;;;;5055713;28;20201;-82
2023/02/09 05:03:52;;;;;;;8.18;6.22;;;;;;;;;;5055523;28;20319;-81
2023/02/09 05:06:21;;;;;;;6.40;5.75;;;;;;;;;;5048877;28;20202;-81
2023/02/09 05:08:49;;;;;;;8.63;6.43;;;;;;;;;;5053079;28;20202;-81
2023/02/09 05:11:16;;;;;;;9.98;5.95;;;;;;;;;;5055286;28;20372;-81
2023/02/09 05:13:44;;;;;;;8.90;6.82;;;;;;;;;;5055755;28;20205;-80
2023/02/09 05:16:16;;;;;;;14.20;6.97;;;;;;;;;;5054953;28;20206;-81
2023/02/09 05:18:45;;;;;;;13.43;8.23;;;;;;;;;;5055695;28;20212;-80
2023/02/09 05:21:14;;;;;;;9.10;6.90;;;;;;;;;;5055862;28;20208;-81
2023/02/09 05:23:41;;;;;;;11.27;7.90;;;;;;;;;;5055158;28;20878;-81
2023/02/09 05:26:09;;;;;;;8.82;7.28;;;;;;;;;;5055211;28;20228;-81
2023/02/09 05:28:36;;;;;;;6.80;5.80;;;;;;;;;;5054987;28;20204;-81
2023/02/09 05:31:04;;;;;;;10.27;7.45;;;;;;;;;;5055481;28;20308;-79
2023/02/09 05:33:31;;;;;;;11.25;7.22;;;;;;;;;;5054573;28;20198;-80
2023/02/09 05:36:00;;;;;;;11.15;6.93;;;;;;;;;;5054808;28;20733;-81
2023/02/09 05:38:27;;;;;;;8.95;7.45;;;;;;;;;;5054563;28;20229;-82
2023/02/09 05:40:55;;;;;;;9.75;7.85;;;;;;;;;;5054117;28;20289;-82
2023/02/09 05:43:22;;;;;;;12.35;8.65;;;;;;;;;;5054272;28;20673;-83
2023/02/09 05:45:50;;;;;;;8.77;6.63;;;;;;;;;;5054280;28;20777;-81
2023/02/09 05:48:17;;;;;;;11.27;7.72;;;;;;;;;;5052966;28;20776;-82
2023/02/09 05:50:45;;;;;;;10.43;7.63;;;;;;;;;;5054208;28;20206;-82
2023/02/09 05:53:14;;;;;;;17.88;9.95;;;;;;;;;;5054402;28;20206;-83
2023/02/09 05:55:42;;;;;;;14.57;8.85;;;;;;;;;;5054459;28;20221;-81
2023/02/09 05:58:09;;;;;;;15.48;9.48;;;;;;;;;;5053848;28;20206;-82
2023/02/09 06:00:37;;;;;;;11.13;8.50;;;;;;;;;;5054213;28;20201;-83
2023/02/09 06:03:04;;;;;;;14.63;9.63;;;;;;;;;;5054830;28;20244;-82
2023/02/09 06:05:32;;;;;;;10.52;7.47;;;;;;;;;;5054268;28;20316;-83
2023/02/09 06:07:59;;;;;;;9.07;6.47;;;;;;;;;;5054395;28;20299;-81
2023/02/09 06:10:28;;;;;;;10.27;7.38;;;;;;;;;;5054379;28;20208;-82
2023/02/09 06:12:56;;;;;;;9.55;8.02;;;;;;;;;;5053861;28;20204;-82
2023/02/09 06:15:23;;;;;;;10.05;7.40;;;;;;;;;;5054796;28;20253;-82
2023/02/09 06:17:51;;;;;;;9.48;7.55;;;;;;;;;;5054151;28;20288;-85
2023/02/09 06:20:18;;;;;;;12.10;7.68;;;;;;;;;;5055744;28;20289;-83
2023/02/09 06:22:46;;;;;;;9.43;6.20;;;;;;;;;;5071022;28;20236;-83
2023/02/09 06:25:13;;;;;;;11.38;7.30;;;;;;;;;;5072780;28;20234;-82
2023/02/09 06:27:42;;;;;;;8.77;6.10;;;;;;;;;;5069925;28;20200;-82
2023/02/09 06:30:12;;;;;;;13.23;9.20;;;;;;;;;;5064431;28;20257;-82
2023/02/09 06:32:39;;;;;;;14.40;9.93;;;;;;;;;;5073778;28;20229;-82
2023/02/09 06:35:07;;;;;;;13.07;8.85;;;;;;;;;;5097995;22;20259;-81
2023/02/09 06:37:34;;;;;;;9.80;7.25;;;;;;;;;;5088292;28;20650;-80
2023/02/09 06:40:02;;;;;;;11.93;6.80;;;;;;;;;;5082209;28;20704;-81
2023/02/09 06:42:42;;;;;;;9.80;7.43;;;;;;;;;;5079969;28;20287;-81
2023/02/09 06:45:11;;;;;;;11.95;8.05;;;;;;;;;;5079944;28;20250;-81
2023/02/09 06:47:41;;;;;;;10.18;7.32;;;;;;;;;;5077587;28;20197;-82
2023/02/09 06:50:10;;;;;;;8.60;7.60;;;;;;;;;;5078254;28;20201;-81
2023/02/09 06:52:37;;;;;;;11.93;7.25;;;;;;;;;;5072153;28;20271;-81
2023/02/09 06:55:06;;;;;;;10.55;7.90;;;;;;;;;;5069742;28;20644;-81
2023/02/09 06:57:34;;;;;;;8.43;5.82;;;;;;;;;;5062084;28;20261;-82
2023/02/09 07:00:01;;;;;;;11.23;7.80;;;;;;;;;;5056240;28;20210;-81
2023/02/09 07:02:30;;;;;;;13.60;7.90;;;;;;;;;;5055909;28;20197;-81
2023/02/09 07:04:58;;;;;;;7.80;6.30;;;;;;;;;;5057113;28;20316;-81
2023/02/09 07:07:25;;;;;;;7.45;5.53;;;;;;;;;;5054229;28;20581;-80
2023/02/09 07:09:53;;;;;;;9.55;6.72;;;;;;;;;;5054352;28;20198;-81
2023/02/09 07:12:21;;;;;;;13.20;9.43;;;;;;;;;;5054011;28;20212;-80
2023/02/09 07:14:48;;;;;;;12.65;8.73;;;;;;;;;;5056146;28;20332;-81
2023/02/09 07:17:15;;;;;;;11.57;7.80;;;;;;;;;;5063291;28;20264;-81
2023/02/09 07:19:45;;;;;;;10.77;8.85;;;;;;;;;;5065994;28;20572;-81
2023/02/09 07:22:12;;;;;;;12.30;9.05;;;;;;;;;;5064064;28;20197;-80
2023/02/09 07:24:40;;;;;;;14.93;9.95;;;;;;;;;;5064789;28;20675;-81
2023/02/09 07:27:07;;;;;;;14.43;8.27;;;;;;;;;;5061612;28;20207;-81
2023/02/09 07:29:35;;;;;;;13.48;8.23;;;;;;;;;;5061981;28;20220;-82
2023/02/09 07:32:02;;;;;;;10.40;8.60;;;;;;;;;;5061921;28;20304;-81
2023/02/09 07:34:30;;;;;;;15.00;9.70;;;;;;;;;;5063253;28;20654;-81
2023/02/09 07:36:59;;;;;;;14.23;7.93;;;;;;;;;;5062740;28;20728;-81
2023/02/09 07:39:26;;;;;;;14.75;8.57;;;;;;;;;;5061581;28;20204;-81
2023/02/09 07:41:54;;;;;;;13.32;9.25;;;;;;;;;;5062646;28;20695;-81
2023/02/09 07:44:21;;;;;;;11.43;8.73;;;;;;;;;;5060479;28;20745;-81
2023/02/09 07:46:49;;;;;;;13.43;8.27;;;;;;;;;;5058875;28;20592;-81
2023/02/09 07:49:16;;;;;;;11.10;8.18;;;;;;;;;;5060364;28;20193;-81
2023/02/09 07:51:44;;;;;;;8.18;6.97;;;;;;;;;;5060191;28;20203;-81
2023/02/09 07:54:14;;;;;;;11.10;8.73;;;;;;;;;;5062238;28;20595;-82
2023/02/09 07:56:42;;;;;;;10.50;7.97;;;;;;;;;;5061794;28;20265;-81
2023/02/09 07:59:11;;;;;;;14.75;8.85;;;;;;;;;;5062004;28;20640;-81
2023/02/09 08:01:39;;;;;;;12.38;8.48;;;;;;;;;;5061990;28;20202;-82
2023/02/09 08:04:06;;;;;;;10.60;7.38;;;;;;;;;;5061499;28;20288;-82
2023/02/09 08:06:38;;;;;;;12.27;9.13;;;;;;;;;;5071134;28;20232;-81
2023/02/09 08:09:07;;;;;;;12.95;9.23;;;;;;;;;;5071342;28;20228;-81
2023/02/09 08:11:39;;;;;;;10.82;7.90;;;;;;;;;;5072064;28;20691;-80
2023/02/09 08:14:12;;;;;;;11.55;8.48;;;;;;;;;;5061809;28;20236;-81
2023/02/09 08:16:40;;;;;;;11.40;8.23;;;;;;;;;;5052874;28;20209;-82
2023/02/09 08:19:12;;;;;;;10.85;8.57;;;;;;;;;;5070422;28;20229;-81
2023/02/09 08:21:43;;;;;;;13.07;8.70;;;;;;;;;;5074601;28;20215;-82
2023/02/09 08:24:11;;;;;;;9.73;7.35;;;;;;;;;;5084211;28;20239;-83
2023/02/09 08:26:40;;;;;;;9.43;6.53;;;;;;;;;;5083685;28;20229;-82
2023/02/09 08:29:08;;;;;;;7.75;5.95;;;;;;;;;;5078655;28;20564;-82
2023/02/09 08:31:36;;;;;;;6.93;5.78;;;;;;;;;;5074234;28;20284;-82
2023/02/09 08:34:04;;;;;;;8.77;6.70;;;;;;;;;;5073016;28;20199;-83
2023/02/09 08:36:33;;;;;;;10.13;7.30;;;;;;;;;;5072694;28;20232;-82
2023/02/09 08:39:00;;;;;;;8.35;6.78;;;;;;;;;;5073167;28;20197;-83
2023/02/09 08:41:28;;;;;;;8.52;7.40;;;;;;;;;;5074464;28;20662;-84
2023/02/09 08:43:57;;;;;;;11.60;7.47;;;;;;;;;;5076152;28;20200;-84
2023/02/09 08:46:24;;;;;;;9.82;6.75;;;;;;;;;;5079036;28;20236;-85
2023/02/09 08:48:53;;;;;;;10.90;7.63;;;;;;;;;;5075769;28;20288;-85
2023/02/09 08:51:20;;;;;;;10.35;7.60;;;;;;;;;;5076430;28;20292;-84
2023/02/09 08:53:50;;;;;;;10.55;7.22;;;;;;;;;;5080726;28;20718;-83
2023/02/09 08:56:18;;;;;;;10.23;7.28;;;;;;;;;;5078367;28;20673;-85
2023/02/09 08:58:46;;;;;;;8.95;7.50;;;;;;;;;;5078703;28;20208;-85
2023/02/09 09:01:15;;;;;;;12.65;9.07;;;;;;;;;;5075974;28;20823;-83
2023/02/09 09:03:42;;;;;;;11.70;8.25;;;;;;;;;;5075779;28;20235;-83
2023/02/09 09:06:11;;;;;;;10.93;8.27;;;;;;;;;;5068531;28;20233;-84
2023/02/09 09:08:39;;;;;;;10.75;8.18;;;;;;;;;;5053936;28;20692;-83
2023/02/09 09:11:11;;;;;;;9.45;7.97;;;;;;;;;;5054000;28;20750;-83
2023/02/09 09:13:39;;;;;;;9.73;7.22;;;;;;;;;;5055641;28;20202;-83
2023/02/09 09:16:07;;;;;;;10.00;6.93;;;;;;;;;;5065404;28;20222;-84
2023/02/09 09:18:36;;;;;;;10.15;7.32;;;;;;;;;;5070842;28;20197;-83
2023/02/09 09:21:04;;;;;;;11.73;9.02;;;;;;;;;;5062633;28;20579;-83
2023/02/09 09:23:32;;;;;;;12.18;9.40;;;;;;;;;;5079929;28;20237;-83
2023/02/09 09:26:01;;;;;;;11.65;7.53;;;;;;;;;;5082481;28;20256;-84
2023/02/09 09:28:29;;;;;;;9.50;7.47;;;;;;;;;;5083482;28;20209;-83
2023/02/09 09:30:58;;;;;;;14.05;9.95;;;;;;;;;;5079547;28;20287;-83
2023/02/09 09:33:25;;;;;;;10.02;7.57;;;;;;;;;;5075100;28;20193;-84
2023/02/09 09:35:54;;;;;;;12.40;9.50;;;;;;;;;;5079798;28;20235;-84
2023/02/09 09:38:21;;;;;;;9.93;7.40;;;;;;;;;;5082909;28;20231;-84
2023/02/09 09:40:49;;;;;;;8.68;7.30;;;;;;;;;;5083238;28;20726;-83
2023/02/09 09:43:24;;;;;;;7.78;6.97;;;;;;;;;;5079680;28;20197;-84
2023/02/09 09:45:51;;;;;;;7.43;5.97;;;;;;;;;;5078696;28;20315;-82
2023/02/09 09:48:24;;;;;;;8.10;6.72;;;;;;;;;;5082369;28;20255;-83
2023/02/09 09:50:55;;;;;;;8.55;7.22;;;;;;;;;;5083290;28;20317;-85
2023/02/09 09:53:31;;;;;;;10.30;8.18;;;;;;;;;;5064872;28;20229;-86
2023/02/09 09:56:02;;;;;;;10.40;8.30;;;;;;;;;;5058681;28;20308;-86
2023/02/09 09:58:30;;;;;;;9.43;7.43;;;;;;;;;;5058108;28;20197;-86
2023/02/09 10:00:58;;;;;;;9.52;7.63;;;;;;;;;;5059504;28;20292;-86
2023/02/09 10:03:26;;;;;;;10.40;7.80;;;;;;;;;;5058919;28;20228;-86
2023/02/09 10:05:59;;;;;;;8.65;6.22;;;;;;;;;;5073739;28;20311;-86
2023/02/09 10:08:31;;;;;;;6.00;5.30;;;;;;;;;;5077762;28;20288;-86
2023/02/09 10:11:04;;;;;;;10.23;8.27;;;;;;;;;;5079366;28;20205;-85
2023/02/09 10:13:37;;;;;;;11.07;8.25;;;;;;;;;;5079268;28;20295;-85
2023/02/09 10:16:11;;;;;;;8.95;6.93;;;;;;;;;;5076507;28;20705;-85
2023/02/09 10:18:39;;;;;;;10.13;6.75;;;;;;;;;;5077822;28;20210;-86
2023/02/09 10:21:10;;;;;;;7.10;5.50;;;;;;;;;;5076843;28;20208;-85
2023/02/09 10:23:42;;;;;;;8.20;6.47;;;;;;;;;;5074340;28;20652;-85
2023/02/09 10:26:23;;;;;;;7.53;6.43;;;;;;;;;;5071892;28;20640;-85
2023/02/09 10:28:53;;;;;;;6.18;5.50;;;;;;;;;;5079704;28;20208;-85
2023/02/09 10:31:25;;;;;;;8.93;7.85;;;;;;;;;;5078283;28;20228;-84
2023/02/09 10:33:58;;;;;;;8.48;6.30;;;;;;;;;;5077647;28;20201;-84
2023/02/09 10:36:30;;;;;;;7.63;6.75;;;;;;;;;;5077210;28;20315;-84
2023/02/09 10:39:14;;;;;;;13.48;8.32;;;;;;;;;;5076292;28;20207;-83
2023/02/09 10:41:45;;;;;;;10.10;8.55;;;;;;;;;;5076531;28;21012;-84
2023/02/09 10:44:19;;;;;;;11.48;8.18;;;;;;;;;;5075785;28;20209;-84
2023/02/09 10:46:47;;;;;;;9.65;6.88;;;;;;;;;;5074105;28;20308;-86
2023/02/09 10:49:30;;;;;;;10.35;7.97;;;;;;;;;;5054596;28;20214;-84
2023/02/09 10:52:09;;;;;;;10.60;7.72;;;;;;;;;;5063651;28;20200;-83
2023/02/09 10:54:42;;;;;;;8.10;7.20;;;;;;;;;;5075313;28;20289;-84
2023/02/09 10:57:25;;;;;;;8.25;7.00;;;;;;;;;;5075478;28;20229;-85
2023/02/09 10:59:55;;;;;;;10.07;7.82;;;;;;;;;;5073195;28;20189;-86
2023/02/09 11:02:36;;;;;;;9.90;8.10;;;;;;;;;;5076831;28;20204;-85
2023/02/09 11:05:22;;;;;;;8.80;7.72;;;;;;;;;;5072850;28;20225;-85
2023/02/09 11:07:59;;;;;;;9.73;8.00;;;;;;;;;;5075463;28;20304;-84
2023/02/09 11:10:27;;;;;;;10.57;8.23;;;;;;;;;;5076958;28;20629;-85
2023/02/09 11:12:54;;;;;;;7.90;6.38;;;;;;;;;;5076531;28;20189;-85
2023/02/09 11:15:26;;;;;;;11.32;7.97;;;;;;;;;;5075972;28;20235;-85
2023/02/09 11:17:57;;;;;;;10.10;7.95;;;;;;;;;;5075812;28;20619;-86
2023/02/09 11:20:29;;;;;;;10.20;8.55;;;;;;;;;;5075638;28;20196;-85
2023/02/09 11:23:44;;;;;;;10.55;8.18;;;;;;;;;;5059098;28;20228;-84
2023/02/09 11:26:20;;;;;;;7.75;6.82;;;;;;;;;;5054005;28;20236;-84
2023/02/09 11:28:53;;;;;;;9.00;7.40;;;;;;;;;;5053552;28;20217;-84
2023/02/09 11:31:50;;;;;;;7.65;6.45;;;;;;;;;;5054615;28;20204;-84
2023/02/09 11:34:37;;;;;;;9.52;7.35;;;;;;;;;;5049683;28;20313;-84
2023/02/09 11:37:17;;;;;;;7.55;6.32;;;;;;;;;;5093101;28;20232;-85
2023/02/09 11:39:52;;;;;;;10.40;7.93;;;;;;;;;;5092376;28;20204;-84
2023/02/09 11:45:14;;;;;;;6.65;5.82;;;;;;;;;;5093859;28;20239;-85
2023/02/09 11:47:53;;;;;;;9.48;8.32;;;;;;;;;;5083696;28;20231;-85
2023/02/09 11:50:31;;;;;;;6.43;5.80;;;;;;;;;;5076792;28;20200;-84
2023/02/09 11:53:04;;;;;;;9.88;8.30;;;;;;;;;;5078045;28;20234;-85
2023/02/09 11:55:37;;;;;;;11.30;9.48;;;;;;;;;;5077551;28;20320;-84
2023/02/09 11:58:29;;;;;;;10.02;8.43;;;;;;;;;;5075960;28;20196;-85
2023/02/09 12:01:02;;;;;;;13.48;9.77;;;;;;;;;;5076589;28;20204;-84
2023/02/09 12:03:30;;;;;;;15.05;10.43;;;;;;;;;;5077078;28;20649;-84
2023/02/09 12:05:57;;;;;;;11.82;9.63;;;;;;;;;;5076236;28;20229;-84
2023/02/09 12:08:39;;;;;;;13.63;9.98;;;;;;;;;;5076598;28;20315;-85
2023/02/09 12:11:30;;;;;;;9.27;7.70;;;;;;;;;;5076334;28;20203;-84
2023/02/09 12:14:18;;;;;;;12.48;9.55;;;;;;;;;;5078059;28;20237;-84
2023/02/09 12:16:54;;;;;;;14.95;8.40;;;;;;;;;;5075672;28;20260;-83
2023/02/09 12:19:31;;;;;;;10.85;8.55;;;;;;;;;;5074894;28;20196;-84
2023/02/09 12:22:00;;;;;;;11.25;9.57;;;;;;;;;;5076932;28;20807;-84
2023/02/09 12:24:33;;;;;;;11.68;9.55;;;;;;;;;;5080142;28;20288;-82
2023/02/09 12:27:02;;;;;;;10.70;9.20;;;;;;;;;;5082039;28;20236;-84
2023/02/09 12:29:37;;;;;;;13.77;10.48;;;;;;;;;;5079471;28;20354;-84
2023/02/09 12:32:30;;;;;;;9.68;8.52;;;;;;;;;;5078036;28;20298;-84
2023/02/09 12:35:25;;;;;;;12.50;8.65;;;;;;;;;;5075495;28;20243;-83
2023/02/09 12:38:16;;;;;;;11.30;9.35;;;;;;;;;;5126347;22;20232;-80
2023/02/09 12:40:43;;;;;;;8.85;7.18;;;;;;;;;;5102679;28;20639;-82
2023/02/09 12:43:29;;;;;;;10.40;8.07;;;;;;;;;;5101564;28;20224;-81
2023/02/09 12:46:20;;;;;;;10.93;9.00;;;;;;;;;;5102423;28;20228;-82
2023/02/09 12:49:18;;;;;;;10.85;9.15;;;;;;;;;;5083850;28;20300;-85
2023/02/09 12:52:05;;;;;;;12.88;9.43;;;;;;;;;;5088545;28;20657;-83
2023/02/09 12:54:48;;;;;;;11.95;9.75;;;;;;;;;;5089675;28;20209;-82
2023/02/09 12:57:52;;;;;;;11.77;9.13;;;;;;;;;;5093946;28;20235;-82
2023/02/09 13:00:46;;;;;;;9.85;8.38;;;;;;;;;;5093998;28;20211;-83
2023/02/09 13:03:20;;;;;;;10.07;8.02;;;;;;;;;;5082092;28;20228;-83
2023/02/09 13:05:48;;;;;;;10.43;8.10;;;;;;;;;;5089621;28;20228;-83
2023/02/09 13:08:24;;;;;;;10.25;7.50;;;;;;;;;;5084482;28;20264;-82
2023/02/09 13:10:57;;;;;;;10.80;8.30;;;;;;;;;;5091836;28;20232;-81
2023/02/09 13:13:35;;;;;;;11.45;8.10;;;;;;;;;;5094303;28;20201;-81
2023/02/09 13:16:42;;;;;;;8.27;7.15;;;;;;;;;;5094390;28;20260;-82
2023/02/09 13:19:24;;;;;;;7.22;6.13;;;;;;;;;;5094172;28;20233;-81
2023/02/09 13:22:01;;;;;;;7.63;6.20;;;;;;;;;;5093239;28;20249;-81
2023/02/09 13:24:37;;;;;;;9.55;6.85;;;;;;;;;;5093681;28;20220;-81
2023/02/09 13:27:19;;;;;;;8.55;7.10;;;;;;;;;;5094586;28;20263;-80
2023/02/09 13:29:52;;;;;;;11.00;7.10;;;;;;;;;;5093431;28;20315;-81
2023/02/09 13:32:35;;;;;;;10.52;7.82;;;;;;;;;;5087196;28;20208;-83
2023/02/09 13:35:13;;;;;;;8.20;6.53;;;;;;;;;;5079452;28;20272;-83
2023/02/09 13:37:46;;;;;;;8.07;5.95;;;;;;;;;;5078792;28;20235;-84
2023/02/09 13:40:19;;;;;;;6.75;5.72;;;;;;;;;;5080222;28;20213;-84
2023/02/09 13:42:59;;;;;;;9.80;8.20;;;;;;;;;;5079977;28;20228;-84
2023/02/09 13:45:27;;;;;;;7.07;6.38;;;;;;;;;;5078727;28;20621;-84
2023/02/09 13:47:57;;;;;;;7.93;7.13;;;;;;;;;;5078942;28;20975;-83
2023/02/09 13:50:28;;;;;;;8.52;6.85;;;;;;;;;;5077690;28;20993;-82
2023/02/09 13:52:58;;;;;;;6.97;6.28;;;;;;;;;;5076652;28;20209;-83
2023/02/09 13:55:27;;;;;;;9.63;7.15;;;;;;;;;;5076901;28;20197;-84
2023/02/09 13:57:59;;;;;;;8.98;7.57;;;;;;;;;;5076170;28;20252;-81
2023/02/09 14:00:31;;;;;;;9.57;7.82;;;;;;;;;;5079512;28;20240;-83
2023/02/09 14:03:02;;;;;;;8.75;7.20;;;;;;;;;;5082984;28;20312;-81
2023/02/09 14:05:37;;;;;;;9.13;7.47;;;;;;;;;;5079909;28;20213;-81
2023/02/09 14:08:05;;;;;;;9.90;7.95;;;;;;;;;;5078629;28;20220;-82
2023/02/09 14:10:35;;;;;;;12.98;9.63;;;;;;;;;;5076171;28;20225;-82
2023/02/09 14:13:05;;;;;;;10.13;8.40;;;;;;;;;;5076865;28;20204;-83
2023/02/09 14:18:31;;;;;;;12.05;9.60;;;;;;;;;;5076804;28;20224;-83
2023/02/09 14:21:13;;;;;;;14.70;10.68;;;;;;;;;;5077161;28;20292;-82
2023/02/09 14:23:43;;;;;;;12.05;9.38;;;;;;;;;;5077101;28;20292;-83
2023/02/09 14:26:24;;;;;;;12.32;8.70;;;;;;;;;;5079342;28;20200;-81
2023/02/09 14:28:55;;;;;;;13.10;9.95;;;;;;;;;;5078839;28;20252;-82
2023/02/09 14:31:24;;;;;;;13.00;10.18;;;;;;;;;;5079733;28;20262;-81
2023/02/09 14:33:55;;;;;;;9.95;8.13;;;;;;;;;;5079485;28;20215;-82
2023/02/09 14:36:26;;;;;;;13.10;9.85;;;;;;;;;;5071034;28;20222;-83
2023/02/09 14:39:11;;;;;;;9.40;8.07;;;;;;;;;;5074516;28;20201;-83
2023/02/09 14:41:39;;;;;;;12.35;8.55;;;;;;;;;;5076587;28;20275;-82
2023/02/09 14:44:20;;;;;;;12.38;9.60;;;;;;;;;;5075947;28;20209;-82
2023/02/09 14:46:50;;;;;;;11.88;9.05;;;;;;;;;;5076122;28;20217;-83
2023/02/09 14:49:20;;;;;;;11.93;9.70;;;;;;;;;;5077049;28;20221;-83
2023/02/09 14:51:48;;;;;;;11.73;7.97;;;;;;;;;;5077279;28;20297;-83
2023/02/09 14:54:23;;;;;;;9.68;8.48;;;;;;;;;;5075520;28;20642;-82
2023/02/09 14:56:52;;;;;;;10.98;8.88;;;;;;;;;;5075500;28;20220;-81
2023/02/09 14:59:20;;;;;;;12.32;9.10;;;;;;;;;;5074908;28;20208;-81
2023/02/09 15:01:49;;;;;;;11.98;8.77;;;;;;;;;;5074492;28;20201;-82
2023/02/09 15:04:18;;;;;;;11.60;8.90;;;;;;;;;;5074824;28;20268;-81
2023/02/09 15:06:58;;;;;;;15.43;10.35;;;;;;;;;;5075467;28;20231;-82
2023/02/09 15:09:34;;;;;;;11.90;8.05;;;;;;;;;;5074876;28;20232;-81